sensor_id;sensor_type;location;lat;lon;timestamp;pressure;altitude;pressure_sealevel;temperature;humidity
1401;BME280;46518;48.842;8.926;2023-07-22T00:02:31;97075.31;;;15.89;76.34
1401;BME280;46518;48.842;8.926;2023-07-22T00:04:59;97080.56;;;15.94;76.59
1401;BME280;46518;48.842;8.926;2023-07-22T00:07:27;97082.34;;;15.74;77.37
1401;BME280;46518;48.842;8.926;2023-07-22T00:09:57;97087.00;;;15.88;76.95
1401;BME280;46518;48.842;8.926;2023-07-22T00:12:25;97076.44;;;15.83;76.60
1401;BME280;46518;48.842;8.926;2023-07-22T00:14:53;97074.84;;;15.82;76.47
1401;BME280;46518;48.842;8.926;2023-07-22T00:17:21;97088.78;;;15.98;75.91
1401;BME280;46518;48.842;8.926;2023-07-22T00:20:22;97086.50;;;15.86;75.70
1401;BME280;46518;48.842;8.926;2023-07-22T00:24:11;97083.63;;;15.77;76.47
1401;BME280;46518;48.842;8.926;2023-07-22T00:28:49;97078.56;;;15.81;76.22
1401;BME280;46518;48.842;8.926;2023-07-22T00:31:21;97082.34;;;15.74;76.63
1401;BME280;46518;48.842;8.926;2023-07-22T00:33:49;97066.47;;;15.69;76.17
1401;BME280;46518;48.842;8.926;2023-07-22T00:36:18;97078.09;;;15.73;76.05
1401;BME280;46518;48.842;8.926;2023-07-22T00:38:46;97057.56;;;15.50;74.70
1401;BME280;46518;48.842;8.926;2023-07-22T00:41:15;97059.72;;;15.48;75.90
1401;BME280;46518;48.842;8.926;2023-07-22T00:43:44;97059.16;;;15.51;75.75
1401;BME280;46518;48.842;8.926;2023-07-22T00:46:13;97071.25;;;15.62;75.61
1401;BME280;46518;48.842;8.926;2023-07-22T00:48:42;97067.81;;;15.62;75.64
1401;BME280;46518;48.842;8.926;2023-07-22T00:51:10;97066.13;;;15.76;74.89
1401;BME280;46518;48.842;8.926;2023-07-22T00:53:39;97074.16;;;15.71;74.97
1401;BME280;46518;48.842;8.926;2023-07-22T00:56:07;97082.13;;;15.66;75.17
1401;BME280;46518;48.842;8.926;2023-07-22T00:58:35;97081.13;;;15.57;75.98
1401;BME280;46518;48.842;8.926;2023-07-22T01:01:05;97077.91;;;15.60;76.26
1401;BME280;46518;48.842;8.926;2023-07-22T01:03:34;97066.13;;;15.42;76.68
1401;BME280;46518;48.842;8.926;2023-07-22T01:06:02;97069.03;;;15.45;76.38
1401;BME280;46518;48.842;8.926;2023-07-22T01:08:31;97065.91;;;15.38;76.11
1401;BME280;46518;48.842;8.926;2023-07-22T01:10:59;97067.06;;;15.22;76.96
1401;BME280;46518;48.842;8.926;2023-07-22T01:13:28;97071.81;;;15.25;77.56
1401;BME280;46518;48.842;8.926;2023-07-22T01:15:56;97068.13;;;15.26;77.84
1401;BME280;46518;48.842;8.926;2023-07-22T01:18:26;97061.75;;;15.22;78.04
1401;BME280;46518;48.842;8.926;2023-07-22T01:20:54;97059.69;;;15.19;78.75
1401;BME280;46518;48.842;8.926;2023-07-22T01:23:24;97051.94;;;15.22;79.13
1401;BME280;46518;48.842;8.926;2023-07-22T01:25:52;97054.34;;;15.24;79.40
1401;BME280;46518;48.842;8.926;2023-07-22T01:28:21;97054.34;;;15.24;79.47
1401;BME280;46518;48.842;8.926;2023-07-22T01:30:50;97042.66;;;15.25;78.96
1401;BME280;46518;48.842;8.926;2023-07-22T01:33:18;97055.53;;;15.42;78.56
1401;BME280;46518;48.842;8.926;2023-07-22T01:35:46;97050.03;;;15.33;77.95
1401;BME280;46518;48.842;8.926;2023-07-22T01:38:15;97058.25;;;15.31;77.71
1401;BME280;46518;48.842;8.926;2023-07-22T01:40:44;97047.94;;;15.25;77.96
1401;BME280;46518;48.842;8.926;2023-07-22T01:43:12;97053.56;;;15.23;78.41
1401;BME280;46518;48.842;8.926;2023-07-22T01:45:41;97057.31;;;15.12;78.50
1401;BME280;46518;48.842;8.926;2023-07-22T01:48:09;97052.09;;;15.02;79.12
1401;BME280;46518;48.842;8.926;2023-07-22T01:50:37;97042.88;;;14.94;79.20
1401;BME280;46518;48.842;8.926;2023-07-22T01:53:06;97048.16;;;14.94;80.16
1401;BME280;46518;48.842;8.926;2023-07-22T01:55:34;97043.19;;;14.82;79.03
1401;BME280;46518;48.842;8.926;2023-07-22T01:58:04;97042.16;;;14.83;79.14
1401;BME280;46518;48.842;8.926;2023-07-22T02:00:32;97044.81;;;14.78;79.79
1401;BME280;46518;48.842;8.926;2023-07-22T02:03:01;97038.50;;;14.69;79.43
1401;BME280;46518;48.842;8.926;2023-07-22T02:05:29;97045.41;;;14.65;79.87
1401;BME280;46518;48.842;8.926;2023-07-22T02:07:57;97033.53;;;14.57;79.81
1401;BME280;46518;48.842;8.926;2023-07-22T02:10:26;97041.22;;;14.59;80.09
1401;BME280;46518;48.842;8.926;2023-07-22T02:12:54;97045.72;;;14.58;80.55
1401;BME280;46518;48.842;8.926;2023-07-22T02:15:24;97043.59;;;14.50;80.37
1401;BME280;46518;48.842;8.926;2023-07-22T02:17:52;97045.75;;;14.43;81.03
1401;BME280;46518;48.842;8.926;2023-07-22T02:20:22;97040.94;;;14.50;81.19
1401;BME280;46518;48.842;8.926;2023-07-22T02:22:50;97050.50;;;14.46;81.32
1401;BME280;46518;48.842;8.926;2023-07-22T02:25:19;97042.03;;;14.44;81.31
1401;BME280;46518;48.842;8.926;2023-07-22T02:27:47;97051.53;;;14.50;81.60
1401;BME280;46518;48.842;8.926;2023-07-22T02:30:15;97057.13;;;14.54;80.40
1401;BME280;46518;48.842;8.926;2023-07-22T02:32:46;97057.69;;;14.40;81.20
1401;BME280;46518;48.842;8.926;2023-07-22T02:35:47;97059.00;;;14.53;80.40
1401;BME280;46518;48.842;8.926;2023-07-22T02:45:22;97053.75;;;14.28;79.76
1401;BME280;46518;48.842;8.926;2023-07-22T04:49:18;97031.59;;;14.73;84.12
1401;BME280;46518;48.842;8.926;2023-07-22T04:51:47;97037.13;;;14.77;83.89
1401;BME280;46518;48.842;8.926;2023-07-22T04:54:15;97040.03;;;14.85;84.09
1401;BME280;46518;48.842;8.926;2023-07-22T04:56:43;97040.28;;;14.84;83.93
1401;BME280;46518;48.842;8.926;2023-07-22T04:59:11;97044.19;;;14.97;83.86
1401;BME280;46518;48.842;8.926;2023-07-22T05:01:41;97042.03;;;14.99;83.69
1401;BME280;46518;48.842;8.926;2023-07-22T05:04:10;97038.34;;;14.95;83.74
1401;BME280;46518;48.842;8.926;2023-07-22T05:06:40;97049.41;;;15.07;83.78
1401;BME280;46518;48.842;8.926;2023-07-22T05:09:09;97044.41;;;15.05;83.59
1401;BME280;46518;48.842;8.926;2023-07-22T05:11:37;97042.75;;;15.09;84.41
1401;BME280;46518;48.842;8.926;2023-07-22T05:14:05;97048.88;;;15.05;84.11
1401;BME280;46518;48.842;8.926;2023-07-22T05:16:33;97046.50;;;15.08;83.16
1401;BME280;46518;48.842;8.926;2023-07-22T05:19:02;97049.75;;;15.35;83.22
1401;BME280;46518;48.842;8.926;2023-07-22T05:21:31;97052.56;;;15.48;82.96
1401;BME280;46518;48.842;8.926;2023-07-22T05:24:01;97061.00;;;15.56;82.44
1401;BME280;46518;48.842;8.926;2023-07-22T05:26:29;97063.63;;;15.56;82.62
1401;BME280;46518;48.842;8.926;2023-07-22T05:29:01;97055.91;;;15.59;82.91
1401;BME280;46518;48.842;8.926;2023-07-22T05:31:30;97067.00;;;15.66;82.58
1401;BME280;46518;48.842;8.926;2023-07-22T05:33:58;97073.28;;;15.81;82.11
1401;BME280;46518;48.842;8.926;2023-07-22T05:36:26;97064.47;;;15.85;81.81
1401;BME280;46518;48.842;8.926;2023-07-22T05:38:55;97071.66;;;15.80;82.02
1401;BME280;46518;48.842;8.926;2023-07-22T05:41:25;97078.22;;;15.87;82.16
1401;BME280;46518;48.842;8.926;2023-07-22T05:43:54;97058.69;;;15.78;81.73
1401;BME280;46518;48.842;8.926;2023-07-22T05:46:22;97083.53;;;16.16;81.24
1401;BME280;46518;48.842;8.926;2023-07-22T05:48:51;97086.44;;;16.20;80.59
1401;BME280;46518;48.842;8.926;2023-07-22T05:51:19;97078.16;;;16.22;80.52
1401;BME280;46518;48.842;8.926;2023-07-22T05:53:47;97102.06;;;16.46;80.25
1401;BME280;46518;48.842;8.926;2023-07-22T05:56:15;97086.53;;;16.58;79.56
1401;BME280;46518;48.842;8.926;2023-07-22T05:58:45;97091.38;;;16.75;78.85
1401;BME280;46518;48.842;8.926;2023-07-22T06:01:13;97097.44;;;16.80;78.71
1401;BME280;46518;48.842;8.926;2023-07-22T06:03:41;97097.13;;;16.82;77.32
1401;BME280;46518;48.842;8.926;2023-07-22T06:06:10;97081.50;;;16.80;76.84
1401;BME280;46518;48.842;8.926;2023-07-22T06:08:38;97096.16;;;16.97;76.79
1401;BME280;46518;48.842;8.926;2023-07-22T06:11:06;97090.75;;;17.02;76.83
1401;BME280;46518;48.842;8.926;2023-07-22T06:13:34;97095.94;;;17.12;76.90
1401;BME280;46518;48.842;8.926;2023-07-22T06:16:04;97101.13;;;17.22;76.95
1401;BME280;46518;48.842;8.926;2023-07-22T06:18:33;97100.91;;;17.19;77.17
1401;BME280;46518;48.842;8.926;2023-07-22T06:21:01;97102.34;;;17.30;77.33
1401;BME280;46518;48.842;8.926;2023-07-22T06:23:29;97087.66;;;17.33;77.13
1401;BME280;46518;48.842;8.926;2023-07-22T06:25:58;97102.47;;;17.39;75.66
1401;BME280;46518;48.842;8.926;2023-07-22T06:28:26;97102.78;;;17.37;74.14
1401;BME280;46518;48.842;8.926;2023-07-22T06:30:54;97078.69;;;17.29;74.16
1401;BME280;46518;48.842;8.926;2023-07-22T06:33:24;97108.91;;;17.52;74.19
1401;BME280;46518;48.842;8.926;2023-07-22T06:35:52;97109.94;;;17.56;74.09
1401;BME280;46518;48.842;8.926;2023-07-22T06:38:20;97112.72;;;17.64;73.76
1401;BME280;46518;48.842;8.926;2023-07-22T06:40:48;97082.31;;;17.52;73.72
1401;BME280;46518;48.842;8.926;2023-07-22T06:43:16;97107.25;;;17.75;73.17
1401;BME280;46518;48.842;8.926;2023-07-22T06:45:44;97112.75;;;17.97;72.61
1401;BME280;46518;48.842;8.926;2023-07-22T06:48:13;97101.00;;;17.98;72.31
1401;BME280;46518;48.842;8.926;2023-07-22T06:50:48;97100.63;;;18.19;71.78
1401;BME280;46518;48.842;8.926;2023-07-22T06:53:16;97116.16;;;18.30;71.58
1401;BME280;46518;48.842;8.926;2023-07-22T06:55:49;97109.72;;;18.31;69.62
1401;BME280;46518;48.842;8.926;2023-07-22T06:58:18;97101.94;;;18.35;70.36
1401;BME280;46518;48.842;8.926;2023-07-22T07:00:46;97097.81;;;18.43;69.96
1401;BME280;46518;48.842;8.926;2023-07-22T07:03:15;97106.66;;;18.52;69.84
1401;BME280;46518;48.842;8.926;2023-07-22T07:05:43;97090.59;;;18.43;67.21
1401;BME280;46518;48.842;8.926;2023-07-22T07:08:12;97103.22;;;18.65;68.51
1401;BME280;46518;48.842;8.926;2023-07-22T07:10:41;97089.47;;;18.72;66.75
1401;BME280;46518;48.842;8.926;2023-07-22T07:13:09;97084.09;;;18.77;65.14
1401;BME280;46518;48.842;8.926;2023-07-22T07:15:37;97097.09;;;18.92;64.51
1401;BME280;46518;48.842;8.926;2023-07-22T07:18:07;97095.22;;;18.93;64.58
1401;BME280;46518;48.842;8.926;2023-07-22T07:20:35;97099.09;;;19.09;64.88
1401;BME280;46518;48.842;8.926;2023-07-22T07:23:03;97104.56;;;19.04;63.66
1401;BME280;46518;48.842;8.926;2023-07-22T07:25:33;97081.72;;;19.12;62.58
1401;BME280;46518;48.842;8.926;2023-07-22T07:28:02;97104.44;;;19.23;62.71
1401;BME280;46518;48.842;8.926;2023-07-22T07:30:31;97105.22;;;19.46;62.21
1401;BME280;46518;48.842;8.926;2023-07-22T07:32:59;97110.81;;;19.58;61.84
1401;BME280;46518;48.842;8.926;2023-07-22T07:35:27;97104.56;;;19.63;60.93
1401;BME280;46518;48.842;8.926;2023-07-22T07:37:55;97108.72;;;19.69;60.21
1401;BME280;46518;48.842;8.926;2023-07-22T07:40:23;97104.09;;;19.83;59.46
1401;BME280;46518;48.842;8.926;2023-07-22T07:42:54;97092.38;;;19.93;59.32
1401;BME280;46518;48.842;8.926;2023-07-22T07:45:23;97101.66;;;19.96;59.52
1401;BME280;46518;48.842;8.926;2023-07-22T07:47:51;97100.81;;;20.18;57.45
1401;BME280;46518;48.842;8.926;2023-07-22T07:50:19;97103.63;;;20.13;56.51
1401;BME280;46518;48.842;8.926;2023-07-22T07:52:48;97102.88;;;20.21;56.33
1401;BME280;46518;48.842;8.926;2023-07-22T07:55:16;97106.50;;;20.25;54.83
1401;BME280;46518;48.842;8.926;2023-07-22T07:57:46;97111.03;;;20.16;52.95
1401;BME280;46518;48.842;8.926;2023-07-22T08:00:16;97108.78;;;20.40;54.98
1401;BME280;46518;48.842;8.926;2023-07-22T08:02:44;97108.78;;;20.49;51.00
1401;BME280;46518;48.842;8.926;2023-07-22T08:05:12;97106.25;;;20.44;49.55
1401;BME280;46518;48.842;8.926;2023-07-22T08:07:41;97103.22;;;20.59;51.23
1401;BME280;46518;48.842;8.926;2023-07-22T08:10:09;97105.13;;;20.67;47.69
1401;BME280;46518;48.842;8.926;2023-07-22T08:12:37;97104.50;;;20.71;48.21
1401;BME280;46518;48.842;8.926;2023-07-22T08:15:06;97100.91;;;20.84;46.97
1401;BME280;46518;48.842;8.926;2023-07-22T08:17:36;97106.91;;;20.89;46.90
1401;BME280;46518;48.842;8.926;2023-07-22T08:20:06;97108.16;;;21.01;46.54
1401;BME280;46518;48.842;8.926;2023-07-22T08:22:35;97107.56;;;21.13;47.07
1401;BME280;46518;48.842;8.926;2023-07-22T08:25:03;97106.94;;;21.24;44.84
1401;BME280;46518;48.842;8.926;2023-07-22T08:27:32;97106.16;;;21.41;46.07
1401;BME280;46518;48.842;8.926;2023-07-22T08:30:00;97104.13;;;21.56;45.11
1401;BME280;46518;48.842;8.926;2023-07-22T08:32:28;97102.53;;;21.28;42.78
1401;BME280;46518;48.842;8.926;2023-07-22T08:34:58;97099.84;;;21.28;42.34
1401;BME280;46518;48.842;8.926;2023-07-22T08:37:26;97097.69;;;21.39;42.75
1401;BME280;46518;48.842;8.926;2023-07-22T08:39:54;97102.25;;;21.47;43.42
1401;BME280;46518;48.842;8.926;2023-07-22T08:42:23;97089.78;;;21.60;41.72
1401;BME280;46518;48.842;8.926;2023-07-22T08:44:56;97090.81;;;21.94;43.89
1401;BME280;46518;48.842;8.926;2023-07-22T08:47:28;97093.66;;;21.89;42.87
1401;BME280;46518;48.842;8.926;2023-07-22T08:50:01;97087.72;;;21.74;41.75
1401;BME280;46518;48.842;8.926;2023-07-22T08:52:30;97097.16;;;21.89;42.59
1401;BME280;46518;48.842;8.926;2023-07-22T08:55:01;97102.97;;;21.83;42.63
1401;BME280;46518;48.842;8.926;2023-07-22T08:57:29;97099.66;;;21.86;41.22
1401;BME280;46518;48.842;8.926;2023-07-22T08:59:57;97096.19;;;21.85;41.88
1401;BME280;46518;48.842;8.926;2023-07-22T09:02:26;97102.03;;;21.87;42.00
1401;BME280;46518;48.842;8.926;2023-07-22T09:04:57;97099.53;;;21.65;43.60
1401;BME280;46518;48.842;8.926;2023-07-22T09:07:28;97102.53;;;21.63;42.77
1401;BME280;46518;48.842;8.926;2023-07-22T09:09:56;97115.44;;;21.70;43.49
1401;BME280;46518;48.842;8.926;2023-07-22T09:12:25;97115.00;;;21.59;43.59
1401;BME280;46518;48.842;8.926;2023-07-22T09:14:53;97115.44;;;21.70;42.52
1401;BME280;46518;48.842;8.926;2023-07-22T09:17:22;97093.25;;;21.69;43.66
1401;BME280;46518;48.842;8.926;2023-07-22T09:19:51;97115.59;;;21.82;42.83
1401;BME280;46518;48.842;8.926;2023-07-22T09:22:25;97101.19;;;22.04;44.06
1401;BME280;46518;48.842;8.926;2023-07-22T09:25:12;97102.38;;;22.33;43.32
1401;BME280;46518;48.842;8.926;2023-07-22T09:27:41;97105.56;;;22.26;42.36
1401;BME280;46518;48.842;8.926;2023-07-22T09:30:21;97106.69;;;22.08;42.51
1401;BME280;46518;48.842;8.926;2023-07-22T09:32:50;97109.59;;;21.85;41.74
1401;BME280;46518;48.842;8.926;2023-07-22T09:35:19;97099.22;;;22.31;43.14
1401;BME280;46518;48.842;8.926;2023-07-22T09:37:47;97102.44;;;22.54;41.82
1401;BME280;46518;48.842;8.926;2023-07-22T09:40:18;97081.25;;;22.61;41.40
1401;BME280;46518;48.842;8.926;2023-07-22T09:42:48;97092.91;;;22.65;42.58
1401;BME280;46518;48.842;8.926;2023-07-22T09:45:17;97075.44;;;22.59;41.27
1401;BME280;46518;48.842;8.926;2023-07-22T09:47:47;97071.75;;;22.72;42.02
1401;BME280;46518;48.842;8.926;2023-07-22T09:50:19;97093.69;;;22.66;40.32
1401;BME280;46518;48.842;8.926;2023-07-22T09:52:52;97083.56;;;22.71;41.17
1401;BME280;46518;48.842;8.926;2023-07-22T09:55:25;97083.75;;;22.36;39.90
1401;BME280;46518;48.842;8.926;2023-07-22T09:57:56;97087.97;;;22.46;41.13
1401;BME280;46518;48.842;8.926;2023-07-22T10:00:25;97084.13;;;22.56;41.89
1401;BME280;46518;48.842;8.926;2023-07-22T10:02:56;97080.63;;;22.64;42.13
1401;BME280;46518;48.842;8.926;2023-07-22T10:05:26;97080.81;;;22.59;41.25
1401;BME280;46518;48.842;8.926;2023-07-22T10:07:57;97084.66;;;22.49;42.24
1401;BME280;46518;48.842;8.926;2023-07-22T10:10:30;97065.22;;;22.52;41.50
1401;BME280;46518;48.842;8.926;2023-07-22T10:12:59;97079.22;;;22.58;41.88
1401;BME280;46518;48.842;8.926;2023-07-22T10:15:29;97075.84;;;22.70;41.13
1401;BME280;46518;48.842;8.926;2023-07-22T10:17:57;97078.66;;;22.73;41.31
1401;BME280;46518;48.842;8.926;2023-07-22T10:20:25;97086.13;;;22.97;41.24
1401;BME280;46518;48.842;8.926;2023-07-22T10:22:54;97072.88;;;22.92;41.49
1401;BME280;46518;48.842;8.926;2023-07-22T10:25:23;97071.63;;;22.90;40.77
1401;BME280;46518;48.842;8.926;2023-07-22T10:27:54;97082.53;;;23.14;41.65
1401;BME280;46518;48.842;8.926;2023-07-22T10:30:22;97070.06;;;23.31;40.60
1401;BME280;46518;48.842;8.926;2023-07-22T10:32:52;97057.72;;;23.17;39.91
1401;BME280;46518;48.842;8.926;2023-07-22T10:35:22;97071.44;;;23.37;39.30
1401;BME280;46518;48.842;8.926;2023-07-22T10:37:52;97043.75;;;23.24;40.29
1401;BME280;46518;48.842;8.926;2023-07-22T10:40:26;97064.06;;;23.67;42.89
1401;BME280;46518;48.842;8.926;2023-07-22T10:42:59;97062.22;;;23.80;40.01
1401;BME280;46518;48.842;8.926;2023-07-22T10:45:29;97059.06;;;23.78;39.77
1401;BME280;46518;48.842;8.926;2023-07-22T10:48:02;97053.97;;;24.09;40.07
1401;BME280;46518;48.842;8.926;2023-07-22T10:50:39;97053.28;;;24.00;36.68
1401;BME280;46518;48.842;8.926;2023-07-22T10:53:10;97063.22;;;23.87;38.20
1401;BME280;46518;48.842;8.926;2023-07-22T10:56:04;97060.06;;;23.73;37.55
1401;BME280;46518;48.842;8.926;2023-07-22T10:58:55;97062.47;;;23.99;38.84
1401;BME280;46518;48.842;8.926;2023-07-22T11:01:32;97063.22;;;23.75;38.73
1401;BME280;46518;48.842;8.926;2023-07-22T11:04:22;97063.13;;;23.30;39.73
1401;BME280;46518;48.842;8.926;2023-07-22T11:07:05;97051.41;;;23.13;40.40
1401;BME280;46518;48.842;8.926;2023-07-22T11:09:38;97056.19;;;23.29;41.25
1401;BME280;46518;48.842;8.926;2023-07-22T11:12:12;97051.31;;;23.43;40.40
1401;BME280;46518;48.842;8.926;2023-07-22T11:14:46;97046.03;;;23.67;40.63
1401;BME280;46518;48.842;8.926;2023-07-22T11:17:15;97047.25;;;23.70;39.33
1401;BME280;46518;48.842;8.926;2023-07-22T11:19:45;97033.91;;;23.49;40.04
1401;BME280;46518;48.842;8.926;2023-07-22T11:22:13;97028.44;;;23.70;40.84
1401;BME280;46518;48.842;8.926;2023-07-22T11:24:41;97026.53;;;24.04;40.99
1401;BME280;46518;48.842;8.926;2023-07-22T11:27:11;97017.22;;;24.01;38.89
1401;BME280;46518;48.842;8.926;2023-07-22T11:29:41;97025.19;;;24.22;38.93
1401;BME280;46518;48.842;8.926;2023-07-22T11:32:14;97012.50;;;24.23;38.10
1401;BME280;46518;48.842;8.926;2023-07-22T11:34:43;97003.13;;;24.41;39.25
1401;BME280;46518;48.842;8.926;2023-07-22T11:37:12;97008.50;;;24.41;38.64
1401;BME280;46518;48.842;8.926;2023-07-22T11:39:41;96997.53;;;24.46;38.68
1401;BME280;46518;48.842;8.926;2023-07-22T11:42:11;97001.31;;;24.45;37.86
1401;BME280;46518;48.842;8.926;2023-07-22T11:44:39;97004.44;;;23.86;37.44
1401;BME280;46518;48.842;8.926;2023-07-22T11:47:09;96996.09;;;23.66;37.62
1401;BME280;46518;48.842;8.926;2023-07-22T11:49:40;97003.16;;;23.71;39.35
1401;BME280;46518;48.842;8.926;2023-07-22T11:52:10;96994.69;;;23.94;40.00
1401;BME280;46518;48.842;8.926;2023-07-22T11:54:39;96991.00;;;24.23;38.89
1401;BME280;46518;48.842;8.926;2023-07-22T11:57:13;96992.25;;;24.50;36.79
1401;BME280;46518;48.842;8.926;2023-07-22T11:59:44;96991.91;;;24.51;36.15
1401;BME280;46518;48.842;8.926;2023-07-22T12:02:14;96989.81;;;24.85;35.76
1401;BME280;46518;48.842;8.926;2023-07-22T12:04:44;96983.00;;;24.63;35.36
1401;BME280;46518;48.842;8.926;2023-07-22T12:07:23;96988.03;;;24.77;34.99
1401;BME280;46518;48.842;8.926;2023-07-22T12:09:51;96972.81;;;24.69;34.88
1401;BME280;46518;48.842;8.926;2023-07-22T12:12:20;96975.75;;;24.92;35.88
1401;BME280;46518;48.842;8.926;2023-07-22T12:14:48;96964.94;;;25.16;35.95
1401;BME280;46518;48.842;8.926;2023-07-22T12:17:18;96969.13;;;25.46;36.03
1401;BME280;46518;48.842;8.926;2023-07-22T12:19:53;96962.44;;;25.39;33.86
1401;BME280;46518;48.842;8.926;2023-07-22T12:22:24;96955.06;;;25.52;35.54
1401;BME280;46518;48.842;8.926;2023-07-22T12:24:52;96953.44;;;24.91;34.37
1401;BME280;46518;48.842;8.926;2023-07-22T12:27:21;96961.84;;;24.62;35.06
1401;BME280;46518;48.842;8.926;2023-07-22T12:29:49;96955.03;;;24.40;34.74
1401;BME280;46518;48.842;8.926;2023-07-22T12:32:19;96959.47;;;24.60;34.80
1401;BME280;46518;48.842;8.926;2023-07-22T12:34:47;96962.91;;;24.73;35.49
1401;BME280;46518;48.842;8.926;2023-07-22T12:37:15;96955.50;;;24.82;33.41
1401;BME280;46518;48.842;8.926;2023-07-22T12:39:43;96963.13;;;24.80;33.23
1401;BME280;46518;48.842;8.926;2023-07-22T12:42:11;96947.22;;;24.75;35.84
1401;BME280;46518;48.842;8.926;2023-07-22T12:44:39;96960.28;;;24.48;35.79
1401;BME280;46518;48.842;8.926;2023-07-22T12:47:08;96956.81;;;24.48;36.52
1401;BME280;46518;48.842;8.926;2023-07-22T12:49:37;96948.41;;;24.37;36.41
1401;BME280;46518;48.842;8.926;2023-07-22T12:52:06;96946.41;;;24.34;35.44
1401;BME280;46518;48.842;8.926;2023-07-22T12:54:36;96950.22;;;24.45;36.97
1401;BME280;46518;48.842;8.926;2023-07-22T12:57:04;96954.03;;;24.32;36.05
1401;BME280;46518;48.842;8.926;2023-07-22T12:59:33;96945.47;;;24.42;37.51
1401;BME280;46518;48.842;8.926;2023-07-22T13:02:01;96946.84;;;24.48;37.67
1401;BME280;46518;48.842;8.926;2023-07-22T13:04:29;96948.19;;;24.30;36.95
1401;BME280;46518;48.842;8.926;2023-07-22T13:06:59;96946.94;;;24.40;36.36
1401;BME280;46518;48.842;8.926;2023-07-22T13:09:27;96941.63;;;24.68;35.56
1401;BME280;46518;48.842;8.926;2023-07-22T13:11:55;96940.56;;;24.85;34.50
1401;BME280;46518;48.842;8.926;2023-07-22T13:14:24;96929.59;;;25.06;35.75
1401;BME280;46518;48.842;8.926;2023-07-22T13:16:52;96938.00;;;25.32;34.33
1401;BME280;46518;48.842;8.926;2023-07-22T13:19:20;96926.72;;;25.43;35.50
1401;BME280;46518;48.842;8.926;2023-07-22T13:21:48;96934.72;;;25.71;34.68
1401;BME280;46518;48.842;8.926;2023-07-22T13:24:17;96937.25;;;25.95;34.80
1401;BME280;46518;48.842;8.926;2023-07-22T13:26:46;96935.66;;;26.10;34.00
1401;BME280;46518;48.842;8.926;2023-07-22T13:29:14;96942.28;;;26.13;34.05
1401;BME280;46518;48.842;8.926;2023-07-22T13:31:42;96933.41;;;26.12;33.49
1401;BME280;46518;48.842;8.926;2023-07-22T13:34:10;96928.81;;;25.97;33.01
1401;BME280;46518;48.842;8.926;2023-07-22T13:36:38;96927.78;;;25.86;34.99
1401;BME280;46518;48.842;8.926;2023-07-22T13:39:06;96935.25;;;25.29;35.15
1401;BME280;46518;48.842;8.926;2023-07-22T13:41:35;96936.34;;;25.28;34.85
1401;BME280;46518;48.842;8.926;2023-07-22T13:44:04;96929.31;;;24.95;35.52
1401;BME280;46518;48.842;8.926;2023-07-22T13:46:32;96937.06;;;25.12;36.60
1401;BME280;46518;48.842;8.926;2023-07-22T13:49:01;96927.94;;;25.45;36.86
1401;BME280;46518;48.842;8.926;2023-07-22T13:51:29;96928.72;;;25.30;34.02
1401;BME280;46518;48.842;8.926;2023-07-22T13:53:57;96923.69;;;25.60;34.22
1401;BME280;46518;48.842;8.926;2023-07-22T13:56:25;96922.22;;;25.94;34.05
1401;BME280;46518;48.842;8.926;2023-07-22T13:58:54;96919.50;;;25.63;32.55
1401;BME280;46518;48.842;8.926;2023-07-22T14:01:23;96925.50;;;25.56;34.19
1401;BME280;46518;48.842;8.926;2023-07-22T14:03:53;96934.38;;;25.40;34.49
1401;BME280;46518;48.842;8.926;2023-07-22T14:06:31;96915.34;;;25.65;35.06
1401;BME280;46518;48.842;8.926;2023-07-22T14:09:10;96910.63;;;25.78;32.86
1401;BME280;46518;48.842;8.926;2023-07-22T14:11:46;96912.16;;;26.11;33.31
1401;BME280;46518;48.842;8.926;2023-07-22T14:14:19;96913.41;;;26.33;32.89
1401;BME280;46518;48.842;8.926;2023-07-22T14:16:57;96909.38;;;26.42;33.17
1401;BME280;46518;48.842;8.926;2023-07-22T14:19:32;96909.34;;;26.03;32.63
1401;BME280;46518;48.842;8.926;2023-07-22T14:22:05;96904.13;;;25.95;32.14
1401;BME280;46518;48.842;8.926;2023-07-22T14:24:36;96900.72;;;25.98;32.37
1401;BME280;46518;48.842;8.926;2023-07-22T14:27:06;96908.47;;;25.99;32.64
1401;BME280;46518;48.842;8.926;2023-07-22T14:29:37;96912.25;;;26.14;32.37
1401;BME280;46518;48.842;8.926;2023-07-22T14:32:07;96906.53;;;26.00;32.81
1401;BME280;46518;48.842;8.926;2023-07-22T14:34:38;96910.50;;;25.87;32.00
1401;BME280;46518;48.842;8.926;2023-07-22T14:37:10;96909.69;;;26.02;33.05
1401;BME280;46518;48.842;8.926;2023-07-22T14:39:42;96911.22;;;26.19;31.83
1401;BME280;46518;48.842;8.926;2023-07-22T14:42:16;96913.38;;;26.13;32.24
1401;BME280;46518;48.842;8.926;2023-07-22T14:44:48;96902.53;;;25.78;31.83
1401;BME280;46518;48.842;8.926;2023-07-22T14:47:19;96903.44;;;25.66;32.73
1401;BME280;46518;48.842;8.926;2023-07-22T14:49:51;96907.25;;;25.65;32.73
1401;BME280;46518;48.842;8.926;2023-07-22T14:52:20;96896.31;;;25.58;33.58
1401;BME280;46518;48.842;8.926;2023-07-22T14:54:50;96903.16;;;25.24;34.25
1401;BME280;46518;48.842;8.926;2023-07-22T14:57:20;96903.22;;;25.11;33.04
1401;BME280;46518;48.842;8.926;2023-07-22T14:59:52;96907.44;;;24.96;34.37
1401;BME280;46518;48.842;8.926;2023-07-22T15:02:26;96905.72;;;24.76;33.56
1401;BME280;46518;48.842;8.926;2023-07-22T15:04:58;96899.31;;;24.52;34.38
1401;BME280;46518;48.842;8.926;2023-07-22T15:07:30;96911.44;;;24.46;35.31
1401;BME280;46518;48.842;8.926;2023-07-22T15:10:03;96904.44;;;24.58;34.91
1401;BME280;46518;48.842;8.926;2023-07-22T15:12:37;96904.91;;;24.47;34.85
1401;BME280;46518;48.842;8.926;2023-07-22T15:15:14;96914.91;;;24.35;34.88
1401;BME280;46518;48.842;8.926;2023-07-22T15:17:45;96901.34;;;24.31;34.84
1401;BME280;46518;48.842;8.926;2023-07-22T15:20:17;96904.41;;;24.17;35.51
1401;BME280;46518;48.842;8.926;2023-07-22T15:22:49;96908.78;;;24.09;36.51
1401;BME280;46518;48.842;8.926;2023-07-22T15:25:22;96905.66;;;24.07;36.12
1401;BME280;46518;48.842;8.926;2023-07-22T15:27:59;96902.50;;;24.18;36.63
1401;BME280;46518;48.842;8.926;2023-07-22T15:30:35;96904.00;;;24.43;35.63
1401;BME280;46518;48.842;8.926;2023-07-22T15:33:11;96907.13;;;24.58;36.14
1401;BME280;46518;48.842;8.926;2023-07-22T15:35:46;96905.00;;;24.91;36.98
1401;BME280;46518;48.842;8.926;2023-07-22T15:38:23;96903.03;;;25.04;36.31